Time;durP1;ratioP1;P1;durP2;ratioP2;P2;SDS_P1;SDS_P2;PMS_P1;PMS_P2;Temp;Humidity;BMP_temperature;BMP_pressure;BME280_temperature;BME280_humidity;BME280_pressure;Samples;Min_cycle;Max_cycle;Signal;HPM_P1;HPM_P2
2021/04/29 00:00:55;;;;;;;;;;;;;;;19.44;70.68;100090.13;5070899;28;864;-62
2021/04/29 00:03:21;;;;;;;;;;;;;;;19.44;70.54;100085.69;5070565;28;1324;-63
2021/04/29 00:05:48;;;;;;;;;;;;;;;19.44;70.52;100083.06;5052497;28;1263;-62
2021/04/29 00:08:14;;;;;;;;;;;;;;;19.45;70.48;100083.91;5070772;28;1330;-62
2021/04/29 00:10:40;;;;;;;;;;;;;;;19.44;70.63;100082.22;5070747;28;1931;-63
2021/04/29 00:13:06;;;;;;;;;;;;;;;19.42;70.83;100084.97;5070217;28;1284;-62
2021/04/29 00:15:33;;;;;;;;;;;;;;;19.42;70.54;100081.47;5052460;28;898;-62
2021/04/29 00:17:59;;;;;;;;;;;;;;;19.42;70.60;100092.91;5051236;28;1307;-63
2021/04/29 00:20:26;;;;;;;;;;;;;;;19.42;70.56;100090.25;5070308;28;1283;-63
2021/04/29 00:22:52;;;;;;;;;;;;;;;19.41;70.56;100091.19;5069853;28;1161;-62
2021/04/29 00:25:18;;;;;;;;;;;;;;;19.42;70.46;100086.75;5070265;28;1245;-63
2021/04/29 00:27:44;;;;;;;;;;;;;;;19.41;70.50;100085.91;5069770;28;1209;-62
2021/04/29 00:30:11;;;;;;;;;;;;;;;19.42;70.53;100081.47;5070145;28;2005;-63
2021/04/29 00:32:38;;;;;;;;;;;;;;;19.40;70.51;100086.00;5051918;28;1434;-62
2021/04/29 00:35:05;;;;;;;;;;;;;;;19.40;70.56;100086.84;5051717;28;1175;-63
2021/04/29 00:37:32;;;;;;;;;;;;;;;19.40;70.51;100086.84;5069906;28;1321;-62
2021/04/29 00:39:58;;;;;;;;;;;;;;;19.40;70.46;100084.22;5069922;28;1092;-63
2021/04/29 00:42:24;;;;;;;;;;;;;;;19.40;70.56;100083.38;5069735;28;944;-62
2021/04/29 00:44:50;;;;;;;;;;;;;;;19.40;70.57;100080.72;5069694;28;1421;-62
2021/04/29 00:47:17;;;;;;;;;;;;;;;19.40;70.65;100083.38;5051511;28;1112;-63
2021/04/29 00:49:43;;;;;;;;;;;;;;;19.40;70.45;100089.50;5068919;28;1914;-62
2021/04/29 00:52:09;;;;;;;;;;;;;;;19.40;70.50;100088.66;5068867;28;1274;-62
2021/04/29 00:54:36;;;;;;;;;;;;;;;19.39;70.36;100081.66;5051511;28;1282;-62
2021/04/29 00:57:02;;;;;;;;;;;;;;;19.40;70.46;100080.72;5069499;28;858;-62
2021/04/29 00:59:28;;;;;;;;;;;;;;;19.38;70.36;100075.53;5069046;28;1652;-62
2021/04/29 01:01:58;;;;;;;;;;;;;;;19.40;70.50;100088.66;5069335;28;909;-62
2021/04/29 01:04:28;;;;;;;;;;;;;;;19.38;70.50;100083.44;5069355;28;1378;-62
2021/04/29 01:06:57;;;;;;;;;;;;;;;19.38;70.36;100075.53;5069214;28;856;-63
2021/04/29 01:09:23;;;;;;;;;;;;;;;19.38;70.47;100091.38;5069157;28;1973;-62
2021/04/29 01:12:10;;;;;;;;;;;;;;;19.38;70.53;100085.25;5069231;28;951;-62
2021/04/29 01:14:36;;;;;;;;;;;;;;;19.37;70.27;100075.63;5055169;28;1261;-62
2021/04/29 01:17:03;;;;;;;;;;;;;;;19.36;70.36;100077.41;5051081;28;1476;-62
2021/04/29 01:19:39;;;;;;;;;;;;;;;19.38;70.33;100069.41;5069082;28;1223;-62
2021/04/29 01:22:07;;;;;;;;;;;;;;;19.37;70.38;100062.41;5050774;28;1280;-62
2021/04/29 01:24:39;;;;;;;;;;;;;;;19.36;70.38;100066.84;5069146;28;1185;-62
2021/04/29 01:27:06;;;;;;;;;;;;;;;19.36;70.36;100063.38;5068851;28;604;-62
2021/04/29 01:29:34;;;;;;;;;;;;;;;19.37;70.37;100071.19;5068097;28;2009;-62
2021/04/29 01:32:01;;;;;;;;;;;;;;;19.36;70.31;100077.41;5068599;28;822;-62
2021/04/29 01:34:30;;;;;;;;;;;;;;;19.36;70.30;100077.41;5069103;28;1220;-62
2021/04/29 01:36:57;;;;;;;;;;;;;;;19.36;70.52;100081.88;5068930;28;790;-62
2021/04/29 01:39:23;;;;;;;;;;;;;;;19.36;70.28;100085.34;5068800;28;1220;-62
2021/04/29 01:41:51;;;;;;;;;;;;;;;19.37;70.29;100080.91;5068648;28;984;-62
2021/04/29 01:44:18;;;;;;;;;;;;;;;19.35;70.32;100081.03;5069040;28;1236;-62
2021/04/29 01:46:45;;;;;;;;;;;;;;;19.35;70.38;100081.03;5068459;28;937;-62
2021/04/29 01:49:12;;;;;;;;;;;;;;;19.35;70.36;100081.03;5067657;28;1221;-62
2021/04/29 01:51:39;;;;;;;;;;;;;;;19.35;70.48;100080.19;5068730;28;1902;-63
2021/04/29 01:54:07;;;;;;;;;;;;;;;19.35;70.45;100083.66;5068797;28;1557;-63
2021/04/29 01:56:34;;;;;;;;;;;;;;;19.35;70.35;100088.09;5068670;28;807;-63
2021/04/29 01:59:01;;;;;;;;;;;;;;;19.34;70.45;100084.59;5068244;28;1765;-63
2021/04/29 02:01:28;;;;;;;;;;;;;;;19.35;70.36;100090.75;5068609;28;861;-63
2021/04/29 02:03:54;;;;;;;;;;;;;;;19.35;70.32;100090.75;5068653;28;1342;-63
2021/04/29 02:06:21;;;;;;;;;;;;;;;19.35;70.39;100088.09;5068615;28;798;-63
2021/04/29 02:08:47;;;;;;;;;;;;;;;19.34;70.41;100089.03;5068604;28;1280;-63
2021/04/29 02:11:14;;;;;;;;;;;;;;;19.35;70.32;100090.75;5068370;28;2001;-63
2021/04/29 02:13:42;;;;;;;;;;;;;;;19.34;70.21;100094.31;5068245;28;1291;-63
2021/04/29 02:16:10;;;;;;;;;;;;;;;19.33;70.34;100092.66;5068140;28;1223;-63
2021/04/29 02:18:38;;;;;;;;;;;;;;;19.34;70.26;100091.69;5068357;28;1209;-61
2021/04/29 02:21:05;;;;;;;;;;;;;;;19.34;70.05;100092.53;5068522;28;838;-62
2021/04/29 02:23:31;;;;;;;;;;;;;;;19.33;70.38;100100.56;5068193;28;1316;-63
2021/04/29 02:26:00;;;;;;;;;;;;;;;19.32;70.28;100097.09;5068464;28;881;-64
2021/04/29 02:28:28;;;;;;;;;;;;;;;19.33;70.21;100095.28;5068271;28;1366;-63
2021/04/29 02:30:54;;;;;;;;;;;;;;;19.33;70.36;100095.28;5067950;28;1984;-63
2021/04/29 02:33:21;;;;;;;;;;;;;;;19.32;70.24;100106.81;5068440;28;1378;-63
2021/04/29 02:35:47;;;;;;;;;;;;;;;19.35;70.48;100103.94;5068249;28;1203;-63
2021/04/29 02:38:15;;;;;;;;;;;;;;;19.33;70.29;100103.22;5068394;28;1327;-62
2021/04/29 02:40:41;;;;;;;;;;;;;;;19.31;70.23;100111.22;5070775;28;848;-63
2021/04/29 02:43:14;;;;;;;;;;;;;;;19.32;70.34;100101.53;5071812;28;1319;-63
2021/04/29 02:45:44;;;;;;;;;;;;;;;19.31;70.24;100100.66;5053990;28;1333;-63
2021/04/29 02:48:11;;;;;;;;;;;;;;;19.31;70.23;100100.66;5071534;28;1224;-63
2021/04/29 02:50:43;;;;;;;;;;;;;;;19.31;70.45;100099.81;5071460;28;1906;-62
2021/04/29 02:53:16;;;;;;;;;;;;;;;19.32;70.27;100104.16;5070688;28;1323;-62
2021/04/29 02:55:43;;;;;;;;;;;;;;;19.31;70.25;100089.25;5071626;28;810;-63
2021/04/29 02:58:10;;;;;;;;;;;;;;;19.30;70.38;100087.59;5071424;28;1232;-63
2021/04/29 03:00:37;;;;;;;;;;;;;;;19.31;70.27;100083.97;5031821;28;852;-63
2021/04/29 03:03:05;;;;;;;;;;;;;;;19.30;70.32;100083.13;5031893;28;1241;-63
2021/04/29 03:05:31;;;;;;;;;;;;;;;19.29;70.28;100092.00;5029992;28;1427;-63
2021/04/29 03:07:58;;;;;;;;;;;;;;;19.30;70.33;100077.03;5031401;28;1249;-63
2021/04/29 03:10:24;;;;;;;;;;;;;;;19.30;70.19;100077.03;5031708;28;1910;-63
2021/04/29 03:12:51;;;;;;;;;;;;;;;19.29;70.20;100081.44;5031546;28;1327;-63
2021/04/29 03:15:17;;;;;;;;;;;;;;;19.31;70.38;100078.69;5031861;28;890;-63
2021/04/29 03:17:43;;;;;;;;;;;;;;;19.29;70.34;100072.69;5031505;28;1239;-62
2021/04/29 03:20:29;;;;;;;;;;;;;;;19.29;70.22;100070.88;5031364;28;810;-62
2021/04/29 03:22:56;;;;;;;;;;;;;;;19.29;70.30;100075.31;5031160;28;1228;-61
2021/04/29 03:25:22;;;;;;;;;;;;;;;19.29;70.22;100080.59;5031685;28;920;-62
2021/04/29 03:27:48;;;;;;;;;;;;;;;19.29;70.21;100081.44;5031782;28;1266;-62
2021/04/29 03:30:14;;;;;;;;;;;;;;;19.30;70.44;100082.31;5033362;28;1902;-62
2021/04/29 03:32:45;;;;;;;;;;;;;;;19.28;70.34;100078.91;5032064;28;1359;-63
2021/04/29 03:35:12;;;;;;;;;;;;;;;19.28;70.40;100070.97;5031449;28;1279;-63
2021/04/29 03:37:38;;;;;;;;;;;;;;;19.28;70.43;100073.63;5031312;28;1244;-63
2021/04/29 03:40:05;;;;;;;;;;;;;;;19.29;70.25;100080.59;5031578;28;1284;-63
2021/04/29 03:42:31;;;;;;;;;;;;;;;19.27;70.44;100074.59;5030618;28;1231;-63
2021/04/29 03:44:57;;;;;;;;;;;;;;;19.27;70.31;100066.66;5030225;28;915;-63
2021/04/29 03:47:24;;;;;;;;;;;;;;;19.27;70.39;100064.03;5031019;28;833;-64
2021/04/29 03:49:50;;;;;;;;;;;;;;;19.27;70.31;100071.94;5030898;28;1906;-61
2021/04/29 03:52:16;;;;;;;;;;;;;;;19.27;70.30;100062.22;5029859;28;854;-63
2021/04/29 03:54:43;;;;;;;;;;;;;;;19.26;70.17;100068.47;5030940;28;1224;-62
2021/04/29 03:57:09;;;;;;;;;;;;;;;19.27;70.35;100066.66;5030818;28;841;-62
2021/04/29 03:59:35;;;;;;;;;;;;;;;19.28;70.38;100057.78;5053382;28;1552;-62
2021/04/29 04:02:01;;;;;;;;;;;;;;;19.25;70.51;100056.19;5070540;28;977;-62
2021/04/29 04:04:31;;;;;;;;;;;;;;;19.26;70.34;100051.78;5070471;28;1326;-62
2021/04/29 04:06:57;;;;;;;;;;;;;;;19.25;70.37;100048.28;5070086;28;790;-61
2021/04/29 04:09:23;;;;;;;;;;;;;;;19.24;70.19;100057.16;5062509;28;1523;-62
2021/04/29 04:11:50;;;;;;;;;;;;;;;19.25;70.39;100064.13;5049914;28;1906;-64
2021/04/29 04:14:16;;;;;;;;;;;;;;;19.25;70.31;100056.19;5039669;28;1324;-62
2021/04/29 04:16:43;;;;;;;;;;;;;;;19.26;70.19;100057.06;5049356;28;1542;-62
2021/04/29 04:19:10;;;;;;;;;;;;;;;19.25;70.25;100058.00;5050211;28;1217;-62
2021/04/29 04:21:36;;;;;;;;;;;;;;;19.25;70.36;100055.34;5050516;28;850;-61
2021/04/29 04:24:02;;;;;;;;;;;;;;;19.24;70.38;100056.31;5015421;28;1864;-62
2021/04/29 04:26:28;;;;;;;;;;;;;;;19.23;70.45;100047.56;5050139;28;1187;-62
2021/04/29 04:28:58;;;;;;;;;;;;;;;19.25;70.38;100058.84;5050107;28;1272;-61
2021/04/29 04:31:24;;;;;;;;;;;;;;;19.23;70.38;100052.84;5049564;28;1910;-62
2021/04/29 04:33:50;;;;;;;;;;;;;;;19.23;70.41;100050.19;5049991;28;1330;-61
2021/04/29 04:36:17;;;;;;;;;;;;;;;19.23;70.45;100049.34;5049681;28;866;-61
2021/04/29 04:38:44;;;;;;;;;;;;;;;19.23;70.32;100055.47;5049599;28;1377;-62
2021/04/29 04:41:10;;;;;;;;;;;;;;;19.21;70.44;100057.34;5049206;28;854;-62
2021/04/29 04:43:37;;;;;;;;;;;;;;;19.23;70.41;100054.63;5049443;28;1346;-63
2021/04/29 04:46:03;;;;;;;;;;;;;;;19.22;70.53;100059.06;5049485;28;850;-63
2021/04/29 04:48:29;;;;;;;;;;;;;;;19.23;70.43;100057.25;5031408;28;1878;-62
2021/04/29 04:50:56;;;;;;;;;;;;;;;19.21;70.47;100057.34;5049433;28;1977;-62
2021/04/29 04:53:23;;;;;;;;;;;;;;;19.22;70.51;100051.13;5049756;28;1344;-62
2021/04/29 04:55:50;;;;;;;;;;;;;;;19.22;70.44;100052.94;5048759;28;826;-63
2021/04/29 04:58:17;;;;;;;;;;;;;;;19.23;70.42;100054.63;5048929;28;1358;-63
2021/04/29 05:00:44;;;;;;;;;;;;;;;19.22;70.38;100047.66;5049486;28;1044;-61
2021/04/29 05:03:12;;;;;;;;;;;;;;;19.22;70.33;100052.94;5049372;28;1334;-61
2021/04/29 05:05:41;;;;;;;;;;;;;;;19.21;70.43;100045.97;5031499;28;1414;-62
2021/04/29 05:08:07;;;;;;;;;;;;;;;19.21;70.35;100052.06;5049244;28;1213;-62
2021/04/29 05:10:34;;;;;;;;;;;;;;;19.24;70.87;100051.03;5048943;28;1906;-63
2021/04/29 05:13:02;;;;;;;;;;;;;;;19.26;70.68;100055.25;5047316;28;1582;-64
2021/04/29 05:15:28;;;;;;;;;;;;;;;19.25;70.30;100053.56;5031723;28;1143;-64
2021/04/29 05:17:55;;;;;;;;;;;;;;;19.25;70.32;100053.56;5048895;28;1366;-63
2021/04/29 05:20:21;;;;;;;;;;;;;;;19.26;70.23;100051.78;5049382;28;1096;-63
2021/04/29 05:22:48;;;;;;;;;;;;;;;19.27;70.31;100056.94;5049146;28;1228;-63
2021/04/29 05:25:14;;;;;;;;;;;;;;;19.27;70.38;100054.28;5031545;28;1509;-63
2021/04/29 05:28:01;;;;;;;;;;;;;;;19.33;71.30;100059.13;5048031;28;1447;-63
2021/04/29 05:30:29;;;;;;;;;;;;;;;19.35;70.55;100059.06;5030572;28;1979;-63
2021/04/29 05:32:55;;;;;;;;;;;;;;;19.27;70.48;100051.66;5048584;28;1555;-63
2021/04/29 05:35:21;;;;;;;;;;;;;;;19.25;70.56;100050.91;5048531;28;1011;-62
2021/04/29 05:37:48;;;;;;;;;;;;;;;19.23;70.72;100049.34;5031097;28;1260;-62
2021/04/29 05:40:14;;;;;;;;;;;;;;;19.24;70.53;100051.03;5048501;28;1470;-63
2021/04/29 05:42:41;;;;;;;;;;;;;;;19.26;70.85;100044.69;5048704;28;1327;-63
2021/04/29 05:45:08;;;;;;;;;;;;;;;19.25;70.58;100042.16;5047620;28;1727;-65
2021/04/29 05:47:34;;;;;;;;;;;;;;;19.33;71.11;100040.66;5020616;28;1563;-64
2021/04/29 05:50:02;;;;;;;;;;;;;;;19.36;70.99;100039.63;5044743;28;1914;-62
2021/04/29 05:52:28;;;;;;;;;;;;;;;19.36;70.73;100031.69;5047534;28;1263;-64
2021/04/29 05:54:55;;;;;;;;;;;;;;;19.36;71.28;100035.16;5046067;28;2014;-63
2021/04/29 05:57:21;;;;;;;;;;;;;;;19.38;71.57;100032.44;5047699;28;871;-64
2021/04/29 05:59:47;;;;;;;;;;;;;;;19.44;73.73;100043.44;5024516;28;1437;-65
2021/04/29 06:02:13;;;;;;;;;;;;;;;19.53;74.06;100053.34;5026713;28;1267;-64
2021/04/29 06:04:41;;;;;;;;;;;;;;;19.52;74.02;100056.09;5028713;28;1266;-65
2021/04/29 06:07:07;;;;;;;;;;;;;;;19.49;74.08;100061.59;5028646;28;1254;-66
2021/04/29 06:09:34;;;;;;;;;;;;;;;19.45;73.87;100055.69;5028412;28;1236;-66
2021/04/29 06:12:01;;;;;;;;;;;;;;;19.43;74.08;100059.38;5009974;28;2003;-66
2021/04/29 06:14:27;;;;;;;;;;;;;;;19.45;74.66;100065.41;5029147;28;1324;-66
2021/04/29 06:16:53;;;;;;;;;;;;;;;19.44;74.65;100063.72;5032661;28;1165;-66
2021/04/29 06:19:20;;;;;;;;;;;;;;;19.43;74.39;100064.66;5032422;28;1318;-66
2021/04/29 06:21:46;;;;;;;;;;;;;;;19.44;73.73;100061.94;5032030;28;819;-65
2021/04/29 06:24:12;;;;;;;;;;;;;;;19.44;73.66;100069.84;5032207;28;1233;-64
2021/04/29 06:26:40;;;;;;;;;;;;;;;19.49;74.16;100072.16;5032012;28;787;-64
2021/04/29 06:29:06;;;;;;;;;;;;;;;19.51;74.00;100071.13;5032503;28;1221;-64
2021/04/29 06:31:36;;;;;;;;;;;;;;;19.49;73.72;100072.16;5032343;28;1910;-65
2021/04/29 06:34:03;;;;;;;;;;;;;;;19.46;73.78;100073.22;5030487;28;1441;-64
2021/04/29 06:36:29;;;;;;;;;;;;;;;19.49;73.58;100073.00;5014010;28;1112;-63
2021/04/29 06:38:55;;;;;;;;;;;;;;;19.49;73.71;100074.78;5032048;28;1334;-61
2021/04/29 06:41:21;;;;;;;;;;;;;;;19.54;73.14;100086.75;5032151;28;838;-62
2021/04/29 06:43:48;;;;;;;;;;;;;;;19.54;73.91;100081.47;5031945;28;1287;-63
2021/04/29 06:46:14;;;;;;;;;;;;;;;19.54;73.95;100083.25;5032046;28;867;-64
2021/04/29 06:48:40;;;;;;;;;;;;;;;19.51;73.09;100080.84;5032121;28;1394;-64
2021/04/29 06:51:07;;;;;;;;;;;;;;;19.48;74.39;100075.78;5031644;28;1906;-62
2021/04/29 06:53:42;;;;;;;;;;;;;;;19.50;74.03;100085.28;5031698;28;1371;-65
2021/04/29 06:56:08;;;;;;;;;;;;;;;19.51;74.09;100078.19;5032293;28;1628;-64
2021/04/29 06:58:38;;;;;;;;;;;;;;;19.60;75.02;100081.03;5049402;28;1537;-67
2021/04/29 07:01:04;;;;;;;;;;;;;;;19.66;74.14;100085.03;5049440;28;1563;-66
2021/04/29 07:03:30;;;;;;;;;;;;;;;19.59;74.04;100091.69;5048300;28;1547;-65
2021/04/29 07:05:57;;;;;;;;;;;;;;;19.54;73.66;100088.53;5050126;28;1299;-66
2021/04/29 07:08:23;;;;;;;;;;;;;;;19.52;73.68;100087.78;5050214;28;1320;-65
2021/04/29 07:10:49;;;;;;;;;;;;;;;19.51;73.55;100094.03;5050641;28;1906;-65
2021/04/29 07:13:16;;;;;;;;;;;;;;;19.50;73.53;100089.69;5032344;28;1210;-65
2021/04/29 07:15:42;;;;;;;;;;;;;;;19.48;73.08;100088.97;5049437;28;1530;-65
2021/04/29 07:18:10;;;;;;;;;;;;;;;19.49;73.08;100093.28;5049597;28;1521;-65
2021/04/29 07:20:37;;;;;;;;;;;;;;;19.51;73.05;100097.53;5049968;28;1538;-64
2021/04/29 07:23:04;;;;;;;;;;;;;;;19.52;72.84;100098.34;5049955;28;1232;-64
2021/04/29 07:25:32;;;;;;;;;;;;;;;19.53;72.63;100094.78;5048811;28;1521;-63
2021/04/29 07:27:59;;;;;;;;;;;;;;;19.49;72.59;100095.94;5031051;28;1341;-65
2021/04/29 07:30:25;;;;;;;;;;;;;;;19.50;72.65;100100.28;5049764;28;1946;-65
2021/04/29 07:32:52;;;;;;;;;;;;;;;19.49;72.13;100107.34;5049532;28;1588;-66
2021/04/29 07:35:20;;;;;;;;;;;;;;;19.48;71.87;100100.41;5031651;28;1315;-67
2021/04/29 07:37:47;;;;;;;;;;;;;;;19.48;72.12;100099.53;5031620;28;1335;-66
2021/04/29 07:40:13;;;;;;;;;;;;;;;19.49;71.83;100101.22;5049674;28;896;-66
2021/04/29 07:42:39;;;;;;;;;;;;;;;19.48;72.11;100102.19;5048634;28;1257;-66
2021/04/29 07:45:07;;;;;;;;;;;;;;;19.48;72.00;100102.19;5049809;28;1288;-66
2021/04/29 07:47:33;;;;;;;;;;;;;;;19.42;71.83;100087.63;5031339;28;1276;-66
2021/04/29 07:49:59;;;;;;;;;;;;;;;19.48;71.99;100102.19;5049591;28;1498;-66
2021/04/29 07:52:26;;;;;;;;;;;;;;;19.48;71.91;100108.31;5048936;28;1988;-66
2021/04/29 07:54:52;;;;;;;;;;;;;;;19.49;71.74;100109.13;5031624;28;1229;-67
2021/04/29 07:57:20;;;;;;;;;;;;;;;19.47;71.48;100111.91;5049330;28;752;-66
2021/04/29 07:59:46;;;;;;;;;;;;;;;19.47;71.59;100109.25;5049057;28;1531;-66
2021/04/29 08:02:13;;;;;;;;;;;;;;;19.47;71.47;100116.34;5031115;28;1269;-65
2021/04/29 08:04:39;;;;;;;;;;;;;;;19.52;71.83;100111.56;5030888;28;1283;-63
2021/04/29 08:07:05;;;;;;;;;;;;;;;19.47;71.30;100114.53;5048819;28;811;-63
2021/04/29 08:09:33;;;;;;;;;;;;;;;19.48;71.44;100110.09;5048695;28;1185;-64
2021/04/29 08:11:59;;;;;;;;;;;;;;;19.47;70.86;100125.09;5030474;28;1887;-63
2021/04/29 08:14:25;;;;;;;;;;;;;;;19.47;71.10;100132.19;5048541;28;1224;-63
2021/04/29 08:16:52;;;;;;;;;;;;;;;19.49;71.02;100132.91;5049069;28;961;-65
2021/04/29 08:19:18;;;;;;;;;;;;;;;19.48;70.93;100133.88;5048939;28;1253;-66
2021/04/29 08:21:46;;;;;;;;;;;;;;;19.48;70.99;100134.72;5030585;28;762;-66
2021/04/29 08:24:12;;;;;;;;;;;;;;;19.49;70.92;100133.75;5047823;28;1549;-67
2021/04/29 08:26:39;;;;;;;;;;;;;;;19.49;70.86;100138.19;5048619;28;992;-67
2021/04/29 08:29:06;;;;;;;;;;;;;;;19.49;70.61;100135.53;5048704;28;1225;-66
2021/04/29 08:31:33;;;;;;;;;;;;;;;19.53;70.57;100134.41;5047820;28;1914;-65
2021/04/29 08:33:59;;;;;;;;;;;;;;;19.50;70.37;100138.09;5048318;28;1240;-64
2021/04/29 08:36:29;;;;;;;;;;;;;;;19.53;70.93;100145.81;5048282;28;708;-65
2021/04/29 08:38:56;;;;;;;;;;;;;;;19.52;70.10;100143.25;5048040;28;1358;-65
2021/04/29 08:41:22;;;;;;;;;;;;;;;19.50;70.11;100143.38;5048375;28;850;-66
2021/04/29 08:43:49;;;;;;;;;;;;;;;19.51;70.20;100146.88;5048755;28;1260;-65
2021/04/29 08:46:15;;;;;;;;;;;;;;;19.48;70.05;100150.59;5048817;28;825;-65
2021/04/29 08:48:43;;;;;;;;;;;;;;;19.49;70.09;100151.41;5029863;28;1411;-64
2021/04/29 08:51:10;;;;;;;;;;;;;;;19.50;69.95;100147.81;5047889;28;1910;-65
2021/04/29 08:53:37;;;;;;;;;;;;;;;19.50;70.15;100151.31;5047795;28;1453;-65
2021/04/29 08:56:03;;;;;;;;;;;;;;;19.49;70.02;100154.88;5047806;28;759;-65
2021/04/29 08:58:30;;;;;;;;;;;;;;;19.51;69.98;100154.81;5029902;28;1473;-65
2021/04/29 09:01:00;;;;;;;;;;;;;;;19.54;69.85;100157.22;5047903;28;803;-64
2021/04/29 09:03:28;;;;;;;;;;;;;;;19.55;69.82;100151.81;5029332;28;1363;-63
2021/04/29 09:06:03;;;;;;;;;;;;;;;19.56;69.87;100152.69;5029579;28;1253;-64
2021/04/29 09:08:31;;;;;;;;;;;;;;;19.56;69.91;100147.38;5047685;28;1282;-64
2021/04/29 09:11:09;;;;;;;;;;;;;;;19.58;69.77;100143.69;5047261;28;1917;-64
2021/04/29 09:13:36;;;;;;;;;;;;;;;19.59;69.82;100152.47;5047959;28;1241;-64
2021/04/29 09:16:07;;;;;;;;;;;;;;;19.59;69.60;100155.09;5047640;28;783;-64
2021/04/29 09:18:34;;;;;;;;;;;;;;;19.60;69.57;100154.16;5047485;28;1284;-65
2021/04/29 09:21:06;;;;;;;;;;;;;;;19.60;69.51;100164.72;5046336;28;1472;-64
2021/04/29 09:23:33;;;;;;;;;;;;;;;19.61;69.78;100167.25;5030235;28;1576;-64
2021/04/29 09:26:05;;;;;;;;;;;;;;;19.62;69.34;100168.94;5029690;28;1112;-63
2021/04/29 09:28:36;;;;;;;;;;;;;;;19.62;69.67;100165.47;5047412;28;1355;-64
2021/04/29 09:31:03;;;;;;;;;;;;;;;19.63;69.43;100160.09;5047468;28;1909;-64
2021/04/29 09:33:34;;;;;;;;;;;;;;;19.62;69.42;100158.38;5047629;28;1232;-65
2021/04/29 09:36:02;;;;;;;;;;;;;;;19.62;69.41;100165.47;5028936;28;1198;-65
2021/04/29 09:38:32;;;;;;;;;;;;;;;19.63;69.40;100160.09;5029393;28;1221;-66
2021/04/29 09:40:59;;;;;;;;;;;;;;;19.64;69.35;100150.34;5047017;28;803;-65
2021/04/29 09:43:25;;;;;;;;;;;;;;;19.68;69.20;100158.91;5028822;28;1358;-64
2021/04/29 09:45:56;;;;;;;;;;;;;;;19.67;69.34;100162.50;5047187;28;773;-64
2021/04/29 09:48:32;;;;;;;;;;;;;;;19.65;69.26;100157.31;5046778;28;1244;-65
2021/04/29 09:50:58;;;;;;;;;;;;;;;19.68;69.25;100161.53;5047114;28;1967;-64
2021/04/29 09:53:24;;;;;;;;;;;;;;;19.68;69.16;100166.81;5047132;28;1355;-66
2021/04/29 09:55:51;;;;;;;;;;;;;;;19.68;69.25;100172.97;5029075;28;1351;-64
2021/04/29 09:58:26;;;;;;;;;;;;;;;19.67;69.18;100168.63;5047079;28;1343;-65
2021/04/29 10:00:52;;;;;;;;;;;;;;;19.66;68.98;100174.88;5047359;28;843;-64
2021/04/29 10:03:19;;;;;;;;;;;;;;;19.67;69.01;100176.53;5047346;28;1225;-64
2021/04/29 10:05:50;;;;;;;;;;;;;;;19.67;69.21;100173.91;5028988;28;1362;-66
2021/04/29 10:08:21;;;;;;;;;;;;;;;19.66;69.55;100174.88;5028870;28;1557;-65
2021/04/29 10:10:49;;;;;;;;;;;;;;;19.69;69.13;100174.66;5046861;28;1977;-64
2021/04/29 10:13:17;;;;;;;;;;;;;;;19.69;68.99;100179.94;5046655;28;1248;-64
2021/04/29 10:15:44;;;;;;;;;;;;;;;19.69;68.89;100174.66;5046954;28;907;-64
2021/04/29 10:18:11;;;;;;;;;;;;;;;19.68;68.79;100175.59;5046720;28;1247;-63
2021/04/29 10:20:39;;;;;;;;;;;;;;;19.69;68.97;100179.94;5046494;28;1141;-65
2021/04/29 10:23:11;;;;;;;;;;;;;;;19.68;68.76;100183.53;5012091;28;1565;-63
2021/04/29 10:25:38;;;;;;;;;;;;;;;19.71;68.92;100182.47;5046849;28;810;-63
2021/04/29 10:28:05;;;;;;;;;;;;;;;19.71;68.75;100182.47;5047533;28;1248;-63
2021/04/29 10:30:31;;;;;;;;;;;;;;;19.70;68.69;100188.72;5046964;28;1912;-65
2021/04/29 10:32:58;;;;;;;;;;;;;;;19.71;68.74;100193.88;5047478;28;1371;-64
2021/04/29 10:35:26;;;;;;;;;;;;;;;19.71;69.02;100187.75;5047368;28;1171;-64
2021/04/29 10:38:02;;;;;;;;;;;;;;;19.70;69.37;100192.19;5047032;28;1229;-65
2021/04/29 10:40:35;;;;;;;;;;;;;;;19.68;69.19;100193.25;5046792;28;865;-64
2021/04/29 10:43:03;;;;;;;;;;;;;;;19.73;69.42;100197.25;5046208;28;1329;-64
2021/04/29 10:45:30;;;;;;;;;;;;;;;19.76;69.34;100197.03;5027692;28;1663;-64
2021/04/29 10:48:05;;;;;;;;;;;;;;;19.74;69.24;100200.75;5045980;28;1759;-65
2021/04/29 10:50:45;;;;;;;;;;;;;;;19.71;69.47;100191.25;5046689;28;1918;-65
2021/04/29 10:53:13;;;;;;;;;;;;;;;19.70;69.30;100192.19;5046518;28;1641;-65
2021/04/29 10:55:43;;;;;;;;;;;;;;;19.69;69.36;100195.81;5046977;28;1708;-65
2021/04/29 10:58:20;;;;;;;;;;;;;;;19.68;69.34;100186.16;5047985;28;1260;-65
2021/04/29 11:00:59;;;;;;;;;;;;;;;19.69;69.26;100184.38;5048905;28;862;-65
2021/04/29 11:03:51;;;;;;;;;;;;;;;19.69;69.36;100194.94;5050031;28;1280;-66
2021/04/29 11:06:19;;;;;;;;;;;;;;;19.69;69.30;100193.16;5049796;28;1704;-65
2021/04/29 11:08:47;;;;;;;;;;;;;;;19.69;69.50;100190.50;5050438;28;1361;-65
2021/04/29 11:11:20;;;;;;;;;;;;;;;19.69;69.49;100184.38;5050202;28;1977;-65
2021/04/29 11:14:16;;;;;;;;;;;;;;;19.68;69.54;100185.31;5050207;28;1299;-65
2021/04/29 11:16:47;;;;;;;;;;;;;;;19.72;69.41;100185.00;5019207;28;1394;-66
2021/04/29 11:19:32;;;;;;;;;;;;;;;19.69;69.62;100185.22;5049760;28;1302;-63
2021/04/29 11:22:03;;;;;;;;;;;;;;;19.67;69.65;100178.38;5049772;28;1764;-64
2021/04/29 11:24:38;;;;;;;;;;;;;;;19.67;69.58;100173.91;5049914;28;1287;-63
2021/04/29 11:27:05;;;;;;;;;;;;;;;19.71;69.95;100174.53;5050087;28;830;-63
2021/04/29 11:29:36;;;;;;;;;;;;;;;19.70;69.58;100163.13;5049465;28;1315;-64
2021/04/29 11:32:03;;;;;;;;;;;;;;;19.72;69.22;100163.88;5031845;28;1977;-64
2021/04/29 11:34:46;;;;;;;;;;;;;;;19.69;69.00;100148.22;5049582;28;1325;-63
2021/04/29 11:37:13;;;;;;;;;;;;;;;19.72;69.92;100142.75;5049439;28;826;-64
2021/04/29 11:39:40;;;;;;;;;;;;;;;19.71;69.20;100141.03;5031592;28;1334;-67
2021/04/29 11:42:09;;;;;;;;;;;;;;;19.73;69.08;100144.41;5049321;28;811;-65
2021/04/29 11:44:35;;;;;;;;;;;;;;;19.71;68.94;100135.75;5049133;28;1181;-64
2021/04/29 11:47:11;;;;;;;;;;;;;;;19.70;68.58;100136.69;5048806;28;775;-64
2021/04/29 11:49:38;;;;;;;;;;;;;;;19.70;68.89;100136.69;5048702;28;1347;-63
2021/04/29 11:52:04;;;;;;;;;;;;;;;19.73;69.00;100135.66;5048816;28;1984;-67
2021/04/29 11:54:30;;;;;;;;;;;;;;;19.70;68.37;100134.03;5031024;28;1689;-68
2021/04/29 11:57:01;;;;;;;;;;;;;;;19.72;68.41;100137.44;5048472;28;819;-65
2021/04/29 11:59:29;;;;;;;;;;;;;;;19.74;68.15;100135.53;5026873;28;1485;-65
2021/04/29 12:01:56;;;;;;;;;;;;;;;19.76;68.60;100132.78;5028340;28;1720;-64
2021/04/29 12:04:23;;;;;;;;;;;;;;;19.74;68.50;100138.19;5028778;28;1787;-64
2021/04/29 12:06:55;;;;;;;;;;;;;;;19.74;68.26;100138.19;5027762;28;1721;-66
2021/04/29 12:09:23;;;;;;;;;;;;;;;19.75;68.17;100137.22;5028970;28;1348;-66
2021/04/29 12:12:16;;;;;;;;;;;;;;;19.79;68.11;100137.88;5006768;28;1910;-65
2021/04/29 12:14:49;;;;;;;;;;;;;;;19.77;68.36;100139.75;5008205;28;1567;-69
2021/04/29 12:17:34;;;;;;;;;;;;;;;19.78;68.72;100134.38;5007370;28;1193;-66
2021/04/29 12:20:17;;;;;;;;;;;;;;;19.75;68.31;100137.22;5025249;28;1689;-64
2021/04/29 12:22:46;;;;;;;;;;;;;;;19.74;68.26;100138.19;5027374;28;1185;-67
2021/04/29 12:25:21;;;;;;;;;;;;;;;19.75;68.11;100144.31;5029174;28;1190;-64
2021/04/29 12:27:48;;;;;;;;;;;;;;;19.75;68.05;100141.66;5029270;28;1269;-65
2021/04/29 12:30:15;;;;;;;;;;;;;;;19.75;68.82;100133.75;5029119;28;1050;-66
2021/04/29 12:32:45;;;;;;;;;;;;;;;19.75;68.62;100137.22;5027039;28;1926;-65
2021/04/29 12:35:14;;;;;;;;;;;;;;;19.75;68.27;100142.53;5027153;28;1723;-65
2021/04/29 12:38:00;;;;;;;;;;;;;;;19.87;68.56;100154.88;5028010;28;1237;-69
2021/04/29 12:40:46;;;;;;;;;;;;;;;19.84;68.18;100154.22;5028545;28;845;-67
2021/04/29 12:43:14;;;;;;;;;;;;;;;19.82;68.34;100154.31;5026897;28;1468;-64
2021/04/29 12:45:45;;;;;;;;;;;;;;;19.89;69.30;100160.03;5029321;28;823;-69
2021/04/29 12:48:21;;;;;;;;;;;;;;;19.85;69.05;100159.41;5026624;28;1927;-66
2021/04/29 12:51:01;;;;;;;;;;;;;;;19.96;69.51;100156.00;5025867;28;1985;-66
2021/04/29 12:53:38;;;;;;;;;;;;;;;19.85;69.21;100164.69;5025987;28;1260;-66